sensor_id;sensor_type;location;lat;lon;timestamp;temperature;humidity
2300;DHT22;1158;48.750;9.078;2023-06-26T00:01:06;14.50;99.90
2300;DHT22;1158;48.750;9.078;2023-06-26T00:03:33;14.40;99.90
2300;DHT22;1158;48.750;9.078;2023-06-26T00:06:00;14.40;99.90
2300;DHT22;1158;48.750;9.078;2023-06-26T00:08:27;14.40;99.90
2300;DHT22;1158;48.750;9.078;2023-06-26T00:10:53;14.40;99.90
2300;DHT22;1158;48.750;9.078;2023-06-26T00:13:21;14.40;99.90
2300;DHT22;1158;48.750;9.078;2023-06-26T00:15:50;14.30;99.90
2300;DHT22;1158;48.750;9.078;2023-06-26T00:18:17;14.30;99.90
2300;DHT22;1158;48.750;9.078;2023-06-26T00:20:43;14.20;99.90
2300;DHT22;1158;48.750;9.078;2023-06-26T00:23:11;14.20;99.90
2300;DHT22;1158;48.750;9.078;2023-06-26T00:25:38;14.20;99.90
2300;DHT22;1158;48.750;9.078;2023-06-26T00:28:05;14.10;99.90
2300;DHT22;1158;48.750;9.078;2023-06-26T00:30:32;14.10;99.90
2300;DHT22;1158;48.750;9.078;2023-06-26T00:33:00;14.10;99.90
2300;DHT22;1158;48.750;9.078;2023-06-26T00:35:27;14.00;99.90
2300;DHT22;1158;48.750;9.078;2023-06-26T00:37:53;14.10;99.90
2300;DHT22;1158;48.750;9.078;2023-06-26T00:40:23;14.00;99.90
2300;DHT22;1158;48.750;9.078;2023-06-26T00:42:52;14.00;99.90
2300;DHT22;1158;48.750;9.078;2023-06-26T00:45:18;14.00;99.90
2300;DHT22;1158;48.750;9.078;2023-06-26T00:47:45;13.90;99.90
2300;DHT22;1158;48.750;9.078;2023-06-26T00:50:14;13.90;99.90
2300;DHT22;1158;48.750;9.078;2023-06-26T00:52:41;13.90;99.90
2300;DHT22;1158;48.750;9.078;2023-06-26T00:55:08;13.90;99.90
2300;DHT22;1158;48.750;9.078;2023-06-26T00:57:35;13.90;99.90
2300;DHT22;1158;48.750;9.078;2023-06-26T01:00:04;13.80;99.90
2300;DHT22;1158;48.750;9.078;2023-06-26T01:02:31;13.80;99.90
2300;DHT22;1158;48.750;9.078;2023-06-26T01:04:59;13.80;99.90
2300;DHT22;1158;48.750;9.078;2023-06-26T01:07:30;13.80;99.90
2300;DHT22;1158;48.750;9.078;2023-06-26T01:09:58;13.80;99.90
2300;DHT22;1158;48.750;9.078;2023-06-26T01:12:25;13.80;99.90
2300;DHT22;1158;48.750;9.078;2023-06-26T01:14:52;13.80;99.90
2300;DHT22;1158;48.750;9.078;2023-06-26T01:17:19;13.80;99.90
2300;DHT22;1158;48.750;9.078;2023-06-26T01:19:46;13.80;99.90
2300;DHT22;1158;48.750;9.078;2023-06-26T01:22:20;13.80;99.90
2300;DHT22;1158;48.750;9.078;2023-06-26T01:25:03;13.70;99.90
2300;DHT22;1158;48.750;9.078;2023-06-26T01:27:33;13.70;99.90
2300;DHT22;1158;48.750;9.078;2023-06-26T01:30:02;13.80;99.90
2300;DHT22;1158;48.750;9.078;2023-06-26T01:32:30;13.70;99.90
2300;DHT22;1158;48.750;9.078;2023-06-26T01:34:58;13.70;99.90
2300;DHT22;1158;48.750;9.078;2023-06-26T01:37:25;13.80;99.90
2300;DHT22;1158;48.750;9.078;2023-06-26T01:39:52;13.80;99.90
2300;DHT22;1158;48.750;9.078;2023-06-26T01:42:19;13.70;99.90
2300;DHT22;1158;48.750;9.078;2023-06-26T01:44:47;13.70;99.90
2300;DHT22;1158;48.750;9.078;2023-06-26T01:47:16;13.70;99.90
2300;DHT22;1158;48.750;9.078;2023-06-26T01:49:49;13.70;99.90
2300;DHT22;1158;48.750;9.078;2023-06-26T01:52:24;13.60;99.90
2300;DHT22;1158;48.750;9.078;2023-06-26T01:54:58;13.60;99.90
2300;DHT22;1158;48.750;9.078;2023-06-26T01:57:29;13.60;99.90
2300;DHT22;1158;48.750;9.078;2023-06-26T01:59:58;13.60;99.90
2300;DHT22;1158;48.750;9.078;2023-06-26T02:02:25;13.70;99.90
2300;DHT22;1158;48.750;9.078;2023-06-26T02:04:54;13.60;99.90
2300;DHT22;1158;48.750;9.078;2023-06-26T02:07:21;13.60;99.90
2300;DHT22;1158;48.750;9.078;2023-06-26T02:09:48;13.60;99.90
2300;DHT22;1158;48.750;9.078;2023-06-26T02:12:15;13.50;99.90
2300;DHT22;1158;48.750;9.078;2023-06-26T02:14:41;13.50;99.90
2300;DHT22;1158;48.750;9.078;2023-06-26T02:17:10;13.50;99.90
2300;DHT22;1158;48.750;9.078;2023-06-26T02:19:36;13.50;99.90
2300;DHT22;1158;48.750;9.078;2023-06-26T02:22:10;13.50;99.90
2300;DHT22;1158;48.750;9.078;2023-06-26T02:24:37;13.50;99.90
2300;DHT22;1158;48.750;9.078;2023-06-26T02:27:04;13.50;99.90
2300;DHT22;1158;48.750;9.078;2023-06-26T02:29:30;13.50;99.90
2300;DHT22;1158;48.750;9.078;2023-06-26T02:31:57;13.50;99.90
2300;DHT22;1158;48.750;9.078;2023-06-26T02:34:25;13.50;99.90
2300;DHT22;1158;48.750;9.078;2023-06-26T02:36:52;13.50;99.90
2300;DHT22;1158;48.750;9.078;2023-06-26T02:39:20;13.50;99.90
2300;DHT22;1158;48.750;9.078;2023-06-26T02:41:47;13.50;99.90
2300;DHT22;1158;48.750;9.078;2023-06-26T02:44:14;13.50;99.90
2300;DHT22;1158;48.750;9.078;2023-06-26T02:46:40;13.40;99.90
2300;DHT22;1158;48.750;9.078;2023-06-26T02:49:07;13.40;99.90
2300;DHT22;1158;48.750;9.078;2023-06-26T02:51:35;13.40;99.90
2300;DHT22;1158;48.750;9.078;2023-06-26T02:54:02;13.40;99.90
2300;DHT22;1158;48.750;9.078;2023-06-26T02:56:29;13.40;99.90
2300;DHT22;1158;48.750;9.078;2023-06-26T02:58:57;13.40;99.90
2300;DHT22;1158;48.750;9.078;2023-06-26T03:01:24;13.40;99.90
2300;DHT22;1158;48.750;9.078;2023-06-26T03:03:52;13.40;99.90
2300;DHT22;1158;48.750;9.078;2023-06-26T03:06:18;13.40;99.90
2300;DHT22;1158;48.750;9.078;2023-06-26T03:08:47;13.40;99.90
2300;DHT22;1158;48.750;9.078;2023-06-26T03:11:13;13.40;99.90
2300;DHT22;1158;48.750;9.078;2023-06-26T03:13:40;13.40;99.90
2300;DHT22;1158;48.750;9.078;2023-06-26T03:16:07;13.50;99.90
2300;DHT22;1158;48.750;9.078;2023-06-26T03:18:33;13.50;99.90
2300;DHT22;1158;48.750;9.078;2023-06-26T03:21:00;13.60;99.90
2300;DHT22;1158;48.750;9.078;2023-06-26T03:23:27;13.60;99.90
2300;DHT22;1158;48.750;9.078;2023-06-26T03:25:55;13.70;99.90
2300;DHT22;1158;48.750;9.078;2023-06-26T03:28:22;13.70;99.90
2300;DHT22;1158;48.750;9.078;2023-06-26T03:30:48;13.70;99.90
2300;DHT22;1158;48.750;9.078;2023-06-26T03:33:15;13.70;99.90
2300;DHT22;1158;48.750;9.078;2023-06-26T03:35:42;13.90;99.90
2300;DHT22;1158;48.750;9.078;2023-06-26T03:38:09;13.90;99.90
2300;DHT22;1158;48.750;9.078;2023-06-26T03:40:36;14.00;99.90
2300;DHT22;1158;48.750;9.078;2023-06-26T03:43:04;14.10;99.90
2300;DHT22;1158;48.750;9.078;2023-06-26T03:45:30;14.20;99.90
2300;DHT22;1158;48.750;9.078;2023-06-26T03:47:57;14.30;99.90
2300;DHT22;1158;48.750;9.078;2023-06-26T03:50:24;14.30;99.90
2300;DHT22;1158;48.750;9.078;2023-06-26T03:52:50;14.30;99.90
2300;DHT22;1158;48.750;9.078;2023-06-26T03:55:20;14.30;99.90
2300;DHT22;1158;48.750;9.078;2023-06-26T03:57:48;14.40;99.90
2300;DHT22;1158;48.750;9.078;2023-06-26T04:00:16;14.40;99.90
2300;DHT22;1158;48.750;9.078;2023-06-26T04:02:43;14.40;99.90
2300;DHT22;1158;48.750;9.078;2023-06-26T04:05:10;14.50;99.90
2300;DHT22;1158;48.750;9.078;2023-06-26T04:07:37;14.50;99.90
2300;DHT22;1158;48.750;9.078;2023-06-26T04:10:05;14.50;99.90
2300;DHT22;1158;48.750;9.078;2023-06-26T04:12:32;14.50;99.90
2300;DHT22;1158;48.750;9.078;2023-06-26T04:14:59;14.50;99.90
2300;DHT22;1158;48.750;9.078;2023-06-26T04:17:27;14.60;99.90
2300;DHT22;1158;48.750;9.078;2023-06-26T04:19:54;14.60;99.90
2300;DHT22;1158;48.750;9.078;2023-06-26T04:22:20;14.60;99.90
2300;DHT22;1158;48.750;9.078;2023-06-26T04:24:47;14.70;99.90
2300;DHT22;1158;48.750;9.078;2023-06-26T04:27:14;14.80;99.90
2300;DHT22;1158;48.750;9.078;2023-06-26T04:29:41;14.80;99.90
2300;DHT22;1158;48.750;9.078;2023-06-26T04:32:08;14.90;99.90
2300;DHT22;1158;48.750;9.078;2023-06-26T04:34:36;15.00;99.90
2300;DHT22;1158;48.750;9.078;2023-06-26T04:37:06;15.10;99.90
2300;DHT22;1158;48.750;9.078;2023-06-26T04:39:35;15.20;99.90
2300;DHT22;1158;48.750;9.078;2023-06-26T04:42:02;15.30;99.90
2300;DHT22;1158;48.750;9.078;2023-06-26T04:44:29;15.50;99.90
2300;DHT22;1158;48.750;9.078;2023-06-26T04:46:55;15.60;99.90
2300;DHT22;1158;48.750;9.078;2023-06-26T04:49:22;15.70;99.90
2300;DHT22;1158;48.750;9.078;2023-06-26T04:51:51;16.00;99.90
2300;DHT22;1158;48.750;9.078;2023-06-26T04:54:18;16.30;99.90
2300;DHT22;1158;48.750;9.078;2023-06-26T04:56:45;16.60;99.90
2300;DHT22;1158;48.750;9.078;2023-06-26T04:59:13;16.90;99.90
2300;DHT22;1158;48.750;9.078;2023-06-26T05:01:40;17.20;99.90
2300;DHT22;1158;48.750;9.078;2023-06-26T05:04:07;17.60;99.90
2300;DHT22;1158;48.750;9.078;2023-06-26T05:06:34;18.00;99.90
2300;DHT22;1158;48.750;9.078;2023-06-26T05:09:02;18.30;99.90
2300;DHT22;1158;48.750;9.078;2023-06-26T05:11:29;18.50;99.90
2300;DHT22;1158;48.750;9.078;2023-06-26T05:13:55;18.80;99.90
2300;DHT22;1158;48.750;9.078;2023-06-26T05:16:22;19.10;99.90
2300;DHT22;1158;48.750;9.078;2023-06-26T05:18:49;19.30;99.90
2300;DHT22;1158;48.750;9.078;2023-06-26T05:21:16;19.50;99.90
2300;DHT22;1158;48.750;9.078;2023-06-26T05:23:43;19.60;99.90
2300;DHT22;1158;48.750;9.078;2023-06-26T05:26:12;19.80;99.90
2300;DHT22;1158;48.750;9.078;2023-06-26T05:28:40;20.10;99.90
2300;DHT22;1158;48.750;9.078;2023-06-26T05:31:07;20.30;99.90
2300;DHT22;1158;48.750;9.078;2023-06-26T05:33:35;20.40;99.90
2300;DHT22;1158;48.750;9.078;2023-06-26T05:36:04;20.60;99.90
2300;DHT22;1158;48.750;9.078;2023-06-26T05:38:32;20.80;99.70
2300;DHT22;1158;48.750;9.078;2023-06-26T05:40:59;21.00;99.30
2300;DHT22;1158;48.750;9.078;2023-06-26T05:43:28;21.10;98.80
2300;DHT22;1158;48.750;9.078;2023-06-26T05:45:54;21.30;98.60
2300;DHT22;1158;48.750;9.078;2023-06-26T05:48:21;21.50;98.40
2300;DHT22;1158;48.750;9.078;2023-06-26T05:50:48;21.60;97.90
2300;DHT22;1158;48.750;9.078;2023-06-26T05:53:15;21.70;97.80
2300;DHT22;1158;48.750;9.078;2023-06-26T05:55:42;21.90;97.10
2300;DHT22;1158;48.750;9.078;2023-06-26T05:58:10;22.10;97.00
2300;DHT22;1158;48.750;9.078;2023-06-26T06:00:40;22.30;96.50
2300;DHT22;1158;48.750;9.078;2023-06-26T06:03:07;22.50;96.30
2300;DHT22;1158;48.750;9.078;2023-06-26T06:05:35;22.70;95.90
2300;DHT22;1158;48.750;9.078;2023-06-26T06:08:02;22.90;95.50
2300;DHT22;1158;48.750;9.078;2023-06-26T06:10:28;23.40;95.40
2300;DHT22;1158;48.750;9.078;2023-06-26T06:12:55;24.70;93.40
2300;DHT22;1158;48.750;9.078;2023-06-26T06:15:22;25.80;91.40
2300;DHT22;1158;48.750;9.078;2023-06-26T06:17:50;26.80;89.80
2300;DHT22;1158;48.750;9.078;2023-06-26T06:20:17;27.80;86.10
2300;DHT22;1158;48.750;9.078;2023-06-26T06:22:45;28.30;83.40
2300;DHT22;1158;48.750;9.078;2023-06-26T06:25:11;28.70;80.80
2300;DHT22;1158;48.750;9.078;2023-06-26T06:27:38;28.90;80.70
2300;DHT22;1158;48.750;9.078;2023-06-26T06:30:06;29.60;78.00
2300;DHT22;1158;48.750;9.078;2023-06-26T06:32:34;29.60;77.70
2300;DHT22;1158;48.750;9.078;2023-06-26T06:35:02;30.10;76.30
2300;DHT22;1158;48.750;9.078;2023-06-26T06:37:35;30.20;75.30
2300;DHT22;1158;48.750;9.078;2023-06-26T06:40:01;30.20;75.00
2300;DHT22;1158;48.750;9.078;2023-06-26T06:42:29;30.10;74.70
2300;DHT22;1158;48.750;9.078;2023-06-26T06:44:56;30.00;75.90
2300;DHT22;1158;48.750;9.078;2023-06-26T06:47:23;30.40;75.40
2300;DHT22;1158;48.750;9.078;2023-06-26T06:49:50;30.30;74.80
2300;DHT22;1158;48.750;9.078;2023-06-26T06:52:18;30.40;74.40
2300;DHT22;1158;48.750;9.078;2023-06-26T06:54:51;30.00;75.50
2300;DHT22;1158;48.750;9.078;2023-06-26T06:57:19;29.60;76.30
2300;DHT22;1158;48.750;9.078;2023-06-26T06:59:46;29.70;77.10
2300;DHT22;1158;48.750;9.078;2023-06-26T07:02:14;29.70;76.30
2300;DHT22;1158;48.750;9.078;2023-06-26T07:04:40;30.50;75.30
2300;DHT22;1158;48.750;9.078;2023-06-26T07:07:07;31.00;74.30
2300;DHT22;1158;48.750;9.078;2023-06-26T07:09:36;31.90;72.50
2300;DHT22;1158;48.750;9.078;2023-06-26T07:12:04;32.00;71.40
2300;DHT22;1158;48.750;9.078;2023-06-26T07:14:31;33.30;70.20
2300;DHT22;1158;48.750;9.078;2023-06-26T07:16:57;33.00;69.70
2300;DHT22;1158;48.750;9.078;2023-06-26T07:19:24;33.60;69.20
2300;DHT22;1158;48.750;9.078;2023-06-26T07:21:51;33.50;68.40
2300;DHT22;1158;48.750;9.078;2023-06-26T07:24:18;34.00;67.00
2300;DHT22;1158;48.750;9.078;2023-06-26T07:26:46;33.70;68.50
2300;DHT22;1158;48.750;9.078;2023-06-26T07:29:12;33.90;67.80
2300;DHT22;1158;48.750;9.078;2023-06-26T07:31:39;33.70;68.10
2300;DHT22;1158;48.750;9.078;2023-06-26T07:34:06;34.40;67.10
2300;DHT22;1158;48.750;9.078;2023-06-26T07:36:33;34.80;65.60
2300;DHT22;1158;48.750;9.078;2023-06-26T07:38:59;35.20;64.00
2300;DHT22;1158;48.750;9.078;2023-06-26T07:41:26;34.40;64.80
2300;DHT22;1158;48.750;9.078;2023-06-26T07:43:56;34.70;64.40
2300;DHT22;1158;48.750;9.078;2023-06-26T07:46:23;34.20;62.70
2300;DHT22;1158;48.750;9.078;2023-06-26T07:48:49;34.10;65.10
2300;DHT22;1158;48.750;9.078;2023-06-26T07:51:16;34.10;65.30
2300;DHT22;1158;48.750;9.078;2023-06-26T07:53:43;34.50;62.80
2300;DHT22;1158;48.750;9.078;2023-06-26T07:56:10;34.30;64.10
2300;DHT22;1158;48.750;9.078;2023-06-26T07:58:36;34.20;63.70
2300;DHT22;1158;48.750;9.078;2023-06-26T08:01:04;34.70;62.30
2300;DHT22;1158;48.750;9.078;2023-06-26T08:03:31;35.40;62.00
2300;DHT22;1158;48.750;9.078;2023-06-26T08:05:58;35.90;60.80
2300;DHT22;1158;48.750;9.078;2023-06-26T08:08:24;36.10;59.50
2300;DHT22;1158;48.750;9.078;2023-06-26T08:10:51;35.80;59.80
2300;DHT22;1158;48.750;9.078;2023-06-26T08:13:18;35.20;59.30
2300;DHT22;1158;48.750;9.078;2023-06-26T08:15:44;34.40;60.50
2300;DHT22;1158;48.750;9.078;2023-06-26T08:18:12;34.20;62.10
2300;DHT22;1158;48.750;9.078;2023-06-26T08:20:39;34.50;60.30
2300;DHT22;1158;48.750;9.078;2023-06-26T08:23:06;34.70;59.70
2300;DHT22;1158;48.750;9.078;2023-06-26T08:25:33;34.50;60.40
2300;DHT22;1158;48.750;9.078;2023-06-26T08:28:00;34.20;61.80
2300;DHT22;1158;48.750;9.078;2023-06-26T08:30:27;34.00;61.70
2300;DHT22;1158;48.750;9.078;2023-06-26T08:32:54;33.70;61.50
2300;DHT22;1158;48.750;9.078;2023-06-26T08:35:22;33.60;62.30
2300;DHT22;1158;48.750;9.078;2023-06-26T08:37:49;33.90;62.10
2300;DHT22;1158;48.750;9.078;2023-06-26T08:40:17;34.40;60.30
2300;DHT22;1158;48.750;9.078;2023-06-26T08:42:44;34.50;60.30
2300;DHT22;1158;48.750;9.078;2023-06-26T08:45:11;34.30;60.70
2300;DHT22;1158;48.750;9.078;2023-06-26T08:47:37;34.40;60.10
2300;DHT22;1158;48.750;9.078;2023-06-26T08:50:08;34.30;60.60
2300;DHT22;1158;48.750;9.078;2023-06-26T08:52:43;35.10;59.90
2300;DHT22;1158;48.750;9.078;2023-06-26T08:55:10;36.30;57.80
2300;DHT22;1158;48.750;9.078;2023-06-26T08:57:37;35.90;58.20
2300;DHT22;1158;48.750;9.078;2023-06-26T09:00:06;35.80;58.20
2300;DHT22;1158;48.750;9.078;2023-06-26T09:02:35;36.70;57.60
2300;DHT22;1158;48.750;9.078;2023-06-26T09:05:02;36.80;57.90
2300;DHT22;1158;48.750;9.078;2023-06-26T09:07:28;37.30;56.80
2300;DHT22;1158;48.750;9.078;2023-06-26T09:09:56;37.60;56.50
2300;DHT22;1158;48.750;9.078;2023-06-26T09:12:26;37.90;55.70
2300;DHT22;1158;48.750;9.078;2023-06-26T09:14:53;38.10;55.10
2300;DHT22;1158;48.750;9.078;2023-06-26T09:17:24;37.90;55.80
2300;DHT22;1158;48.750;9.078;2023-06-26T09:19:51;38.40;55.70
2300;DHT22;1158;48.750;9.078;2023-06-26T09:22:19;36.80;55.60
2300;DHT22;1158;48.750;9.078;2023-06-26T09:24:46;36.20;56.70
2300;DHT22;1158;48.750;9.078;2023-06-26T09:27:14;37.00;56.10
2300;DHT22;1158;48.750;9.078;2023-06-26T09:29:40;37.90;55.00
2300;DHT22;1158;48.750;9.078;2023-06-26T09:32:08;38.50;52.90
2300;DHT22;1158;48.750;9.078;2023-06-26T09:34:35;38.00;53.60
2300;DHT22;1158;48.750;9.078;2023-06-26T09:37:03;38.10;53.90
2300;DHT22;1158;48.750;9.078;2023-06-26T09:39:30;37.70;54.30
2300;DHT22;1158;48.750;9.078;2023-06-26T09:41:58;37.20;54.20
2300;DHT22;1158;48.750;9.078;2023-06-26T09:44:26;37.00;55.40
2300;DHT22;1158;48.750;9.078;2023-06-26T09:46:55;35.00;56.80
2300;DHT22;1158;48.750;9.078;2023-06-26T09:49:23;34.30;59.20
2300;DHT22;1158;48.750;9.078;2023-06-26T09:51:51;34.60;58.80
2300;DHT22;1158;48.750;9.078;2023-06-26T09:54:21;34.70;57.70
2300;DHT22;1158;48.750;9.078;2023-06-26T09:56:48;35.10;58.50
2300;DHT22;1158;48.750;9.078;2023-06-26T09:59:15;36.30;56.20
2300;DHT22;1158;48.750;9.078;2023-06-26T10:01:45;36.40;56.30
2300;DHT22;1158;48.750;9.078;2023-06-26T10:04:12;34.90;58.70
2300;DHT22;1158;48.750;9.078;2023-06-26T10:06:44;34.10;59.60
2300;DHT22;1158;48.750;9.078;2023-06-26T10:09:12;33.30;60.20
2300;DHT22;1158;48.750;9.078;2023-06-26T10:11:47;32.80;62.60
2300;DHT22;1158;48.750;9.078;2023-06-26T10:14:16;32.30;62.80
2300;DHT22;1158;48.750;9.078;2023-06-26T10:16:46;32.50;63.10
2300;DHT22;1158;48.750;9.078;2023-06-26T10:19:17;32.60;62.70
2300;DHT22;1158;48.750;9.078;2023-06-26T10:21:50;33.30;63.40
2300;DHT22;1158;48.750;9.078;2023-06-26T10:24:18;34.10;61.80
2300;DHT22;1158;48.750;9.078;2023-06-26T10:26:49;33.30;62.60
2300;DHT22;1158;48.750;9.078;2023-06-26T10:29:17;32.70;65.20
2300;DHT22;1158;48.750;9.078;2023-06-26T10:31:51;32.00;66.70
2300;DHT22;1158;48.750;9.078;2023-06-26T10:34:19;31.40;68.40
2300;DHT22;1158;48.750;9.078;2023-06-26T10:36:47;31.90;69.80
2300;DHT22;1158;48.750;9.078;2023-06-26T10:39:17;32.80;67.30
2300;DHT22;1158;48.750;9.078;2023-06-26T10:41:44;33.10;65.90
2300;DHT22;1158;48.750;9.078;2023-06-26T10:44:11;33.80;66.10
2300;DHT22;1158;48.750;9.078;2023-06-26T10:46:50;33.90;65.40
2300;DHT22;1158;48.750;9.078;2023-06-26T10:49:18;33.70;64.50
2300;DHT22;1158;48.750;9.078;2023-06-26T10:51:46;33.40;65.50
2300;DHT22;1158;48.750;9.078;2023-06-26T10:54:15;33.00;65.70
2300;DHT22;1158;48.750;9.078;2023-06-26T10:56:42;33.00;65.90
2300;DHT22;1158;48.750;9.078;2023-06-26T10:59:15;32.70;66.00
2300;DHT22;1158;48.750;9.078;2023-06-26T11:01:42;32.40;67.20
2300;DHT22;1158;48.750;9.078;2023-06-26T11:04:11;32.50;66.40
2300;DHT22;1158;48.750;9.078;2023-06-26T11:06:39;32.60;66.30
2300;DHT22;1158;48.750;9.078;2023-06-26T11:09:08;32.40;67.30
2300;DHT22;1158;48.750;9.078;2023-06-26T11:11:55;32.30;66.60
2300;DHT22;1158;48.750;9.078;2023-06-26T11:14:25;32.60;66.20
2300;DHT22;1158;48.750;9.078;2023-06-26T11:16:55;32.80;66.50
2300;DHT22;1158;48.750;9.078;2023-06-26T11:19:26;32.70;66.80
2300;DHT22;1158;48.750;9.078;2023-06-26T11:21:58;32.60;67.80
2300;DHT22;1158;48.750;9.078;2023-06-26T11:24:25;33.60;66.80
2300;DHT22;1158;48.750;9.078;2023-06-26T11:26:52;33.80;65.80
2300;DHT22;1158;48.750;9.078;2023-06-26T11:29:19;33.80;66.10
2300;DHT22;1158;48.750;9.078;2023-06-26T11:31:45;34.30;65.30
2300;DHT22;1158;48.750;9.078;2023-06-26T11:34:13;34.20;66.40
2300;DHT22;1158;48.750;9.078;2023-06-26T11:36:43;34.20;66.20
2300;DHT22;1158;48.750;9.078;2023-06-26T11:39:11;33.70;66.20
2300;DHT22;1158;48.750;9.078;2023-06-26T11:41:39;32.70;68.10
2300;DHT22;1158;48.750;9.078;2023-06-26T11:44:07;32.00;69.60
2300;DHT22;1158;48.750;9.078;2023-06-26T11:46:35;32.10;69.90
2300;DHT22;1158;48.750;9.078;2023-06-26T11:49:03;33.00;69.50
2300;DHT22;1158;48.750;9.078;2023-06-26T11:51:30;33.90;67.30
2300;DHT22;1158;48.750;9.078;2023-06-26T11:54:00;33.40;67.10
2300;DHT22;1158;48.750;9.078;2023-06-26T11:56:28;32.50;69.60
2300;DHT22;1158;48.750;9.078;2023-06-26T11:58:56;31.70;71.40
2300;DHT22;1158;48.750;9.078;2023-06-26T12:01:24;31.60;72.60
2300;DHT22;1158;48.750;9.078;2023-06-26T12:03:53;32.00;71.40
2300;DHT22;1158;48.750;9.078;2023-06-26T12:06:20;31.90;72.50
2300;DHT22;1158;48.750;9.078;2023-06-26T12:08:47;32.60;70.30
2300;DHT22;1158;48.750;9.078;2023-06-26T12:11:16;33.20;69.80
2300;DHT22;1158;48.750;9.078;2023-06-26T12:13:44;33.20;69.90
2300;DHT22;1158;48.750;9.078;2023-06-26T12:16:12;33.40;68.90
2300;DHT22;1158;48.750;9.078;2023-06-26T12:18:40;33.80;68.90
2300;DHT22;1158;48.750;9.078;2023-06-26T12:21:07;33.90;68.40
2300;DHT22;1158;48.750;9.078;2023-06-26T12:23:39;34.90;67.50
2300;DHT22;1158;48.750;9.078;2023-06-26T12:26:19;34.80;67.10
2300;DHT22;1158;48.750;9.078;2023-06-26T12:28:47;34.40;68.10
2300;DHT22;1158;48.750;9.078;2023-06-26T12:31:14;34.40;68.10
2300;DHT22;1158;48.750;9.078;2023-06-26T12:33:42;33.80;68.50
2300;DHT22;1158;48.750;9.078;2023-06-26T12:36:11;34.00;68.70
2300;DHT22;1158;48.750;9.078;2023-06-26T12:38:38;33.70;68.80
2300;DHT22;1158;48.750;9.078;2023-06-26T12:41:05;33.60;68.80
2300;DHT22;1158;48.750;9.078;2023-06-26T12:43:38;33.30;69.50
2300;DHT22;1158;48.750;9.078;2023-06-26T12:46:05;33.80;70.00
2300;DHT22;1158;48.750;9.078;2023-06-26T12:48:38;34.30;68.30
2300;DHT22;1158;48.750;9.078;2023-06-26T12:51:09;34.40;69.10
2300;DHT22;1158;48.750;9.078;2023-06-26T12:53:36;35.30;67.30
2300;DHT22;1158;48.750;9.078;2023-06-26T12:56:05;35.90;67.00
2300;DHT22;1158;48.750;9.078;2023-06-26T12:58:34;35.60;66.10
2300;DHT22;1158;48.750;9.078;2023-06-26T13:01:03;35.70;65.40
2300;DHT22;1158;48.750;9.078;2023-06-26T13:03:30;35.30;65.10
2300;DHT22;1158;48.750;9.078;2023-06-26T13:05:57;34.50;66.80
2300;DHT22;1158;48.750;9.078;2023-06-26T13:08:24;34.50;68.30
2300;DHT22;1158;48.750;9.078;2023-06-26T13:10:50;34.50;66.30
2300;DHT22;1158;48.750;9.078;2023-06-26T13:13:17;34.40;67.70
2300;DHT22;1158;48.750;9.078;2023-06-26T13:15:45;34.40;66.20
2300;DHT22;1158;48.750;9.078;2023-06-26T13:18:12;33.60;67.40
2300;DHT22;1158;48.750;9.078;2023-06-26T13:20:38;33.40;68.40
2300;DHT22;1158;48.750;9.078;2023-06-26T13:23:05;33.50;68.20
2300;DHT22;1158;48.750;9.078;2023-06-26T13:25:32;34.50;66.30
2300;DHT22;1158;48.750;9.078;2023-06-26T13:27:59;34.60;65.20
2300;DHT22;1158;48.750;9.078;2023-06-26T13:30:26;33.70;66.90
2300;DHT22;1158;48.750;9.078;2023-06-26T13:32:54;34.20;65.30
2300;DHT22;1158;48.750;9.078;2023-06-26T13:35:21;33.90;66.00
2300;DHT22;1158;48.750;9.078;2023-06-26T13:37:48;34.30;65.60
2300;DHT22;1158;48.750;9.078;2023-06-26T13:40:15;34.30;65.20
2300;DHT22;1158;48.750;9.078;2023-06-26T13:42:42;33.70;65.60
2300;DHT22;1158;48.750;9.078;2023-06-26T13:45:10;33.60;65.70
2300;DHT22;1158;48.750;9.078;2023-06-26T13:47:39;33.80;65.40
2300;DHT22;1158;48.750;9.078;2023-06-26T13:50:09;34.40;64.90
2300;DHT22;1158;48.750;9.078;2023-06-26T13:52:36;34.70;61.80
2300;DHT22;1158;48.750;9.078;2023-06-26T13:55:03;34.10;62.10
2300;DHT22;1158;48.750;9.078;2023-06-26T13:57:31;33.80;62.80
2300;DHT22;1158;48.750;9.078;2023-06-26T13:59:57;33.60;63.20
2300;DHT22;1158;48.750;9.078;2023-06-26T14:02:24;33.80;62.50
2300;DHT22;1158;48.750;9.078;2023-06-26T14:04:52;33.80;61.80
2300;DHT22;1158;48.750;9.078;2023-06-26T14:07:20;33.20;63.00
2300;DHT22;1158;48.750;9.078;2023-06-26T14:09:47;32.90;62.80
2300;DHT22;1158;48.750;9.078;2023-06-26T14:12:14;32.70;63.40
2300;DHT22;1158;48.750;9.078;2023-06-26T14:14:40;33.30;61.50
2300;DHT22;1158;48.750;9.078;2023-06-26T14:17:07;33.00;61.50
2300;DHT22;1158;48.750;9.078;2023-06-26T14:19:35;33.20;61.30
2300;DHT22;1158;48.750;9.078;2023-06-26T14:22:02;32.50;62.30
2300;DHT22;1158;48.750;9.078;2023-06-26T14:24:30;33.00;61.90
2300;DHT22;1158;48.750;9.078;2023-06-26T14:26:56;32.80;61.70
2300;DHT22;1158;48.750;9.078;2023-06-26T14:29:23;32.20;62.00
2300;DHT22;1158;48.750;9.078;2023-06-26T14:31:50;32.00;63.10
2300;DHT22;1158;48.750;9.078;2023-06-26T14:34:16;32.20;63.40
2300;DHT22;1158;48.750;9.078;2023-06-26T14:36:43;32.30;62.70
2300;DHT22;1158;48.750;9.078;2023-06-26T14:39:10;32.80;63.30
2300;DHT22;1158;48.750;9.078;2023-06-26T14:41:38;32.00;64.00
2300;DHT22;1158;48.750;9.078;2023-06-26T14:44:04;32.40;64.10
2300;DHT22;1158;48.750;9.078;2023-06-26T14:46:33;33.00;62.90
2300;DHT22;1158;48.750;9.078;2023-06-26T14:49:00;33.60;61.40
2300;DHT22;1158;48.750;9.078;2023-06-26T14:51:27;33.70;61.20
2300;DHT22;1158;48.750;9.078;2023-06-26T14:53:53;33.10;61.90
2300;DHT22;1158;48.750;9.078;2023-06-26T14:56:22;32.20;63.80
2300;DHT22;1158;48.750;9.078;2023-06-26T14:58:51;31.70;64.60
2300;DHT22;1158;48.750;9.078;2023-06-26T15:01:18;31.60;65.70
2300;DHT22;1158;48.750;9.078;2023-06-26T15:03:45;31.40;66.90
2300;DHT22;1158;48.750;9.078;2023-06-26T15:06:12;30.80;66.90
2300;DHT22;1158;48.750;9.078;2023-06-26T15:08:39;30.80;67.50
2300;DHT22;1158;48.750;9.078;2023-06-26T15:11:06;30.30;67.70
2300;DHT22;1158;48.750;9.078;2023-06-26T15:13:32;30.40;67.30
2300;DHT22;1158;48.750;9.078;2023-06-26T15:16:00;31.20;66.00
2300;DHT22;1158;48.750;9.078;2023-06-26T15:18:27;31.50;65.80
2300;DHT22;1158;48.750;9.078;2023-06-26T15:20:54;31.80;64.50
2300;DHT22;1158;48.750;9.078;2023-06-26T15:23:21;31.50;65.00
2300;DHT22;1158;48.750;9.078;2023-06-26T15:25:47;31.30;65.90
2300;DHT22;1158;48.750;9.078;2023-06-26T15:28:14;31.30;65.30
2300;DHT22;1158;48.750;9.078;2023-06-26T15:30:41;30.80;65.80
2300;DHT22;1158;48.750;9.078;2023-06-26T15:33:09;30.80;66.20
2300;DHT22;1158;48.750;9.078;2023-06-26T15:35:36;30.30;66.70
2300;DHT22;1158;48.750;9.078;2023-06-26T15:38:02;30.00;67.30
2300;DHT22;1158;48.750;9.078;2023-06-26T15:40:29;29.60;67.90
2300;DHT22;1158;48.750;9.078;2023-06-26T15:42:56;29.40;69.20
2300;DHT22;1158;48.750;9.078;2023-06-26T15:45:23;29.20;68.30
2300;DHT22;1158;48.750;9.078;2023-06-26T15:47:51;28.90;69.10
2300;DHT22;1158;48.750;9.078;2023-06-26T15:50:45;28.60;69.70
2300;DHT22;1158;48.750;9.078;2023-06-26T15:53:34;28.50;70.50
2300;DHT22;1158;48.750;9.078;2023-06-26T15:56:02;28.30;70.60
2300;DHT22;1158;48.750;9.078;2023-06-26T15:58:29;28.10;71.80
2300;DHT22;1158;48.750;9.078;2023-06-26T16:00:56;27.90;71.80
2300;DHT22;1158;48.750;9.078;2023-06-26T16:03:22;27.80;72.00
2300;DHT22;1158;48.750;9.078;2023-06-26T16:05:50;27.60;72.80